CFG117 EDDH-EDDK
Flight info
| Callsign | CFG117 |
|---|---|
| Flight time | N/A |
| Altitude | 31000 |
| Route | IDEKO8C IDEKO N850 NIE DCT LARBU/N0425F300 DCT PODER Z189 RUNER/N0388F240 T858 KOPAG KOPAG06 |
| Aircraft | A20N/M-SDE2E3FGHIRWXY/LB1 |
Departure
| Time | 2026-04-20 18:05 |
|---|---|
| Airport | Hamburg Helmut Schmidt Airport (EDDH) |
Arrival
| Time | N/A |
|---|---|
| Airport | Cologne Bonn Airport (EDDK) |
| Time | Latitude | Longitude | Altitude | Speed | Heading |
|---|---|---|---|---|---|
| 2026-04-20 17:47 | 53.62050 | 9.97749 | 43 ft | 0 kts | 268° |
| 2026-04-20 17:56 | 53.62051 | 9.97761 | 43 ft | 5 kts | 268° |
| 2026-04-20 17:56 | 53.62057 | 9.97800 | 43 ft | 1 kts | 270° |
| 2026-04-20 17:56 | 53.62058 | 9.97809 | 43 ft | 0 kts | 322° |
| 2026-04-20 17:56 | 53.62056 | 9.97814 | 43 ft | 0 kts | 359° |
| 2026-04-20 17:57 | 53.62052 | 9.97814 | 43 ft | 2 kts | 24° |
| 2026-04-20 17:57 | 53.62049 | 9.97813 | 43 ft | 0 kts | 47° |
| 2026-04-20 17:59 | 53.62049 | 9.97814 | 43 ft | 1 kts | 47° |
| 2026-04-20 17:59 | 53.62062 | 9.97840 | 40 ft | 0 kts | 56° |
| 2026-04-20 18:02 | 53.62094 | 9.97877 | 43 ft | 7 kts | 4° |
| 2026-04-20 18:02 | 53.62149 | 9.97804 | 43 ft | 16 kts | 318° |
| 2026-04-20 18:02 | 53.62205 | 9.97693 | 43 ft | 8 kts | 277° |
| 2026-04-20 18:02 | 53.62192 | 9.97622 | 43 ft | 13 kts | 243° |
| 2026-04-20 18:03 | 53.62165 | 9.97552 | 43 ft | 0 kts | 237° |
| 2026-04-20 18:04 | 53.62165 | 9.97551 | 43 ft | 0 kts | 240° |
| 2026-04-20 18:04 | 53.62169 | 9.97529 | 43 ft | 7 kts | 287° |
| 2026-04-20 18:04 | 53.62233 | 9.97381 | 44 ft | 17 kts | 322° |
| 2026-04-20 18:05 | 53.62422 | 9.97558 | 43 ft | 64 kts | 47° |
| 2026-04-20 18:05 | 53.62909 | 9.98526 | 94 ft | 147 kts | 59° |
| 2026-04-20 18:05 | 53.62968 | 10.00164 | 1347 ft | 141 kts | 108° |
| 2026-04-20 18:06 | 53.62967 | 10.01816 | 2368 ft | 150 kts | 69° |
| 2026-04-20 18:06 | 53.63925 | 10.02857 | 3025 ft | 190 kts | 22° |
| 2026-04-20 18:06 | 53.65125 | 10.03510 | 4272 ft | 176 kts | 48° |
| 2026-04-20 18:06 | 53.66087 | 10.05099 | 4691 ft | 214 kts | 58° |
| 2026-04-20 18:07 | 53.67120 | 10.07229 | 4989 ft | 256 kts | 60° |
| 2026-04-20 18:07 | 53.68301 | 10.09859 | 5083 ft | 307 kts | 58° |
| 2026-04-20 18:07 | 53.70070 | 10.12375 | 4996 ft | 359 kts | 39° |
| 2026-04-20 18:07 | 53.72500 | 10.14093 | 4902 ft | 400 kts | 25° |
| 2026-04-20 18:08 | 53.74362 | 10.14711 | 4853 ft | 421 kts | 17° |
| 2026-04-20 18:08 | 53.77870 | 10.14318 | 4830 ft | 349 kts | 353° |
| 2026-04-20 18:08 | 53.79859 | 10.12446 | 4883 ft | 313 kts | 326° |
| 2026-04-20 18:08 | 53.80725 | 10.10548 | 4917 ft | 294 kts | 304° |
| 2026-04-20 18:09 | 53.81139 | 10.07402 | 4994 ft | 267 kts | 271° |
| 2026-04-20 18:09 | 53.80564 | 10.04619 | 5044 ft | 233 kts | 232° |
| 2026-04-20 18:09 | 53.79500 | 10.02811 | 4956 ft | 207 kts | 222° |
| 2026-04-20 18:09 | 53.78370 | 10.01260 | 4267 ft | 216 kts | 219° |
| 2026-04-20 18:10 | 53.77161 | 9.99765 | 3788 ft | 214 kts | 218° |
| 2026-04-20 18:10 | 53.76113 | 9.98067 | 3478 ft | 209 kts | 237° |
| 2026-04-20 18:10 | 53.75267 | 9.95974 | 2851 ft | 217 kts | 243° |
| 2026-04-20 18:10 | 53.74530 | 9.93782 | 2364 ft | 217 kts | 247° |
| 2026-04-20 18:11 | 53.73829 | 9.91450 | 2093 ft | 227 kts | 250° |
| 2026-04-20 18:11 | 53.73147 | 9.89034 | 2122 ft | 229 kts | 249° |
| 2026-04-20 18:11 | 53.72492 | 9.86647 | 2071 ft | 214 kts | 252° |
| 2026-04-20 18:11 | 53.71930 | 9.84349 | 1774 ft | 216 kts | 255° |
| 2026-04-20 18:12 | 53.71358 | 9.81934 | 1651 ft | 225 kts | 253° |
| 2026-04-20 18:12 | 53.70714 | 9.79499 | 1623 ft | 229 kts | 252° |